sensor_id;sensor_type;location;lat;lon;timestamp;temperature;humidity
45765;DHT22;31474;45.332;10.230;2022-07-23T00:01:57;29.50;79.40
45765;DHT22;31474;45.332;10.230;2022-07-23T00:04:23;29.50;79.30
45765;DHT22;31474;45.332;10.230;2022-07-23T00:06:48;29.50;79.20
45765;DHT22;31474;45.332;10.230;2022-07-23T00:09:14;29.40;79.40
45765;DHT22;31474;45.332;10.230;2022-07-23T00:11:40;29.30;80.20
45765;DHT22;31474;45.332;10.230;2022-07-23T00:14:05;29.30;79.70
45765;DHT22;31474;45.332;10.230;2022-07-23T00:16:31;29.30;79.70
45765;DHT22;31474;45.332;10.230;2022-07-23T00:18:56;29.30;79.80
45765;DHT22;31474;45.332;10.230;2022-07-23T00:21:22;29.30;79.70
45765;DHT22;31474;45.332;10.230;2022-07-23T00:23:48;29.30;79.60
45765;DHT22;31474;45.332;10.230;2022-07-23T00:26:13;29.20;79.50
45765;DHT22;31474;45.332;10.230;2022-07-23T00:28:39;29.20;79.50
45765;DHT22;31474;45.332;10.230;2022-07-23T00:31:04;29.20;79.30
45765;DHT22;31474;45.332;10.230;2022-07-23T00:33:30;29.20;79.40
45765;DHT22;31474;45.332;10.230;2022-07-23T00:35:56;29.10;79.30
45765;DHT22;31474;45.332;10.230;2022-07-23T00:38:22;29.10;79.30
45765;DHT22;31474;45.332;10.230;2022-07-23T00:40:47;29.10;79.30
45765;DHT22;31474;45.332;10.230;2022-07-23T00:43:13;29.20;79.30
45765;DHT22;31474;45.332;10.230;2022-07-23T00:45:38;29.20;79.40
45765;DHT22;31474;45.332;10.230;2022-07-23T00:48:05;29.10;79.20
45765;DHT22;31474;45.332;10.230;2022-07-23T00:50:31;29.10;79.20
45765;DHT22;31474;45.332;10.230;2022-07-23T00:52:57;29.10;79.70
45765;DHT22;31474;45.332;10.230;2022-07-23T00:55:22;29.00;79.10
45765;DHT22;31474;45.332;10.230;2022-07-23T00:57:50;29.00;79.10
45765;DHT22;31474;45.332;10.230;2022-07-23T01:00:16;29.00;79.20
45765;DHT22;31474;45.332;10.230;2022-07-23T01:02:42;28.90;79.30
45765;DHT22;31474;45.332;10.230;2022-07-23T01:05:08;28.90;79.30
45765;DHT22;31474;45.332;10.230;2022-07-23T01:07:34;28.80;79.30
45765;DHT22;31474;45.332;10.230;2022-07-23T01:10:00;28.80;79.50
45765;DHT22;31474;45.332;10.230;2022-07-23T01:12:26;28.70;79.60
45765;DHT22;31474;45.332;10.230;2022-07-23T01:14:56;28.70;79.60
45765;DHT22;31474;45.332;10.230;2022-07-23T01:17:22;28.70;80.00
45765;DHT22;31474;45.332;10.230;2022-07-23T01:19:48;28.70;79.80
45765;DHT22;31474;45.332;10.230;2022-07-23T01:22:15;28.60;79.90
45765;DHT22;31474;45.332;10.230;2022-07-23T01:24:43;28.60;79.90
45765;DHT22;31474;45.332;10.230;2022-07-23T01:27:08;28.60;80.20
45765;DHT22;31474;45.332;10.230;2022-07-23T01:29:34;28.60;80.50
45765;DHT22;31474;45.332;10.230;2022-07-23T01:32:00;28.40;80.70
45765;DHT22;31474;45.332;10.230;2022-07-23T01:34:25;28.40;80.80
45765;DHT22;31474;45.332;10.230;2022-07-23T01:36:51;28.30;80.70
45765;DHT22;31474;45.332;10.230;2022-07-23T01:39:16;28.40;81.00
45765;DHT22;31474;45.332;10.230;2022-07-23T01:41:42;28.40;80.70
45765;DHT22;31474;45.332;10.230;2022-07-23T01:44:08;28.40;81.00
45765;DHT22;31474;45.332;10.230;2022-07-23T01:46:33;28.40;81.20
45765;DHT22;31474;45.332;10.230;2022-07-23T01:48:59;28.40;81.40
45765;DHT22;31474;45.332;10.230;2022-07-23T01:51:25;28.40;81.70
45765;DHT22;31474;45.332;10.230;2022-07-23T01:53:50;28.40;82.00
45765;DHT22;31474;45.332;10.230;2022-07-23T01:56:16;28.40;82.10
45765;DHT22;31474;45.332;10.230;2022-07-23T01:58:42;28.40;82.50
45765;DHT22;31474;45.332;10.230;2022-07-23T02:01:07;28.30;82.40
45765;DHT22;31474;45.332;10.230;2022-07-23T02:03:33;28.30;82.80
45765;DHT22;31474;45.332;10.230;2022-07-23T02:05:59;28.20;82.80
45765;DHT22;31474;45.332;10.230;2022-07-23T02:08:24;28.10;82.70
45765;DHT22;31474;45.332;10.230;2022-07-23T02:10:50;28.10;83.20
45765;DHT22;31474;45.332;10.230;2022-07-23T02:13:17;28.10;83.50
45765;DHT22;31474;45.332;10.230;2022-07-23T02:15:43;28.00;83.40
45765;DHT22;31474;45.332;10.230;2022-07-23T02:18:08;28.00;83.40
45765;DHT22;31474;45.332;10.230;2022-07-23T02:20:34;28.00;83.20
45765;DHT22;31474;45.332;10.230;2022-07-23T02:23:04;28.00;83.20
45765;DHT22;31474;45.332;10.230;2022-07-23T02:25:29;28.10;83.20
45765;DHT22;31474;45.332;10.230;2022-07-23T02:27:55;28.00;83.10
45765;DHT22;31474;45.332;10.230;2022-07-23T02:30:21;28.00;83.10
45765;DHT22;31474;45.332;10.230;2022-07-23T02:32:46;28.00;83.30
45765;DHT22;31474;45.332;10.230;2022-07-23T02:35:12;28.00;83.10
45765;DHT22;31474;45.332;10.230;2022-07-23T02:37:37;28.00;83.20
45765;DHT22;31474;45.332;10.230;2022-07-23T02:40:03;28.00;83.30
45765;DHT22;31474;45.332;10.230;2022-07-23T02:42:29;27.90;83.30
45765;DHT22;31474;45.332;10.230;2022-07-23T02:44:55;27.90;83.30
45765;DHT22;31474;45.332;10.230;2022-07-23T02:47:20;27.90;83.40
45765;DHT22;31474;45.332;10.230;2022-07-23T02:49:46;27.90;83.30
45765;DHT22;31474;45.332;10.230;2022-07-23T02:52:12;27.90;84.00
45765;DHT22;31474;45.332;10.230;2022-07-23T02:54:38;27.80;84.10
45765;DHT22;31474;45.332;10.230;2022-07-23T02:57:04;27.80;84.40
45765;DHT22;31474;45.332;10.230;2022-07-23T02:59:30;27.70;84.70
45765;DHT22;31474;45.332;10.230;2022-07-23T03:01:56;27.70;85.20
45765;DHT22;31474;45.332;10.230;2022-07-23T03:04:21;27.60;85.00
45765;DHT22;31474;45.332;10.230;2022-07-23T03:06:47;27.60;85.10
45765;DHT22;31474;45.332;10.230;2022-07-23T03:09:13;27.50;85.30
45765;DHT22;31474;45.332;10.230;2022-07-23T03:11:38;27.50;85.40
45765;DHT22;31474;45.332;10.230;2022-07-23T03:14:04;27.50;85.70
45765;DHT22;31474;45.332;10.230;2022-07-23T03:16:30;27.40;85.40
45765;DHT22;31474;45.332;10.230;2022-07-23T03:18:55;27.40;85.30
45765;DHT22;31474;45.332;10.230;2022-07-23T03:21:21;27.40;85.90
45765;DHT22;31474;45.332;10.230;2022-07-23T03:23:47;27.40;86.00
45765;DHT22;31474;45.332;10.230;2022-07-23T03:26:12;27.40;86.00
45765;DHT22;31474;45.332;10.230;2022-07-23T03:28:38;27.40;85.80
45765;DHT22;31474;45.332;10.230;2022-07-23T03:31:04;27.40;85.80
45765;DHT22;31474;45.332;10.230;2022-07-23T03:33:29;27.40;85.60
45765;DHT22;31474;45.332;10.230;2022-07-23T03:35:55;27.40;85.60
45765;DHT22;31474;45.332;10.230;2022-07-23T03:38:20;27.40;85.70
45765;DHT22;31474;45.332;10.230;2022-07-23T03:40:46;27.50;86.20
45765;DHT22;31474;45.332;10.230;2022-07-23T03:43:12;27.50;86.20
45765;DHT22;31474;45.332;10.230;2022-07-23T03:45:37;27.40;86.60
45765;DHT22;31474;45.332;10.230;2022-07-23T03:48:03;27.40;87.00
45765;DHT22;31474;45.332;10.230;2022-07-23T03:50:28;27.40;87.30
45765;DHT22;31474;45.332;10.230;2022-07-23T03:52:54;27.30;87.40
45765;DHT22;31474;45.332;10.230;2022-07-23T03:55:20;27.20;87.20
45765;DHT22;31474;45.332;10.230;2022-07-23T03:57:46;27.20;87.00
45765;DHT22;31474;45.332;10.230;2022-07-23T04:00:12;27.20;86.60
45765;DHT22;31474;45.332;10.230;2022-07-23T04:02:38;27.20;86.90
45765;DHT22;31474;45.332;10.230;2022-07-23T04:05:04;27.30;86.70
45765;DHT22;31474;45.332;10.230;2022-07-23T04:07:30;27.30;86.00
45765;DHT22;31474;45.332;10.230;2022-07-23T04:09:56;27.30;86.00
45765;DHT22;31474;45.332;10.230;2022-07-23T04:12:23;27.30;86.10
45765;DHT22;31474;45.332;10.230;2022-07-23T04:14:49;27.30;85.70
45765;DHT22;31474;45.332;10.230;2022-07-23T04:17:14;27.30;85.90
45765;DHT22;31474;45.332;10.230;2022-07-23T04:19:40;27.30;86.00
45765;DHT22;31474;45.332;10.230;2022-07-23T04:22:08;27.30;85.60
45765;DHT22;31474;45.332;10.230;2022-07-23T04:24:33;27.40;86.00
45765;DHT22;31474;45.332;10.230;2022-07-23T04:27:00;27.30;86.10
45765;DHT22;31474;45.332;10.230;2022-07-23T04:29:25;27.30;86.30
45765;DHT22;31474;45.332;10.230;2022-07-23T04:31:51;27.40;86.10
45765;DHT22;31474;45.332;10.230;2022-07-23T04:34:17;27.40;85.50
45765;DHT22;31474;45.332;10.230;2022-07-23T04:36:43;27.40;85.30
45765;DHT22;31474;45.332;10.230;2022-07-23T04:39:08;27.40;85.50
45765;DHT22;31474;45.332;10.230;2022-07-23T04:41:35;27.40;86.00
45765;DHT22;31474;45.332;10.230;2022-07-23T04:44:01;27.30;85.90
45765;DHT22;31474;45.332;10.230;2022-07-23T04:46:27;27.40;86.90
45765;DHT22;31474;45.332;10.230;2022-07-23T04:48:53;27.30;85.90
45765;DHT22;31474;45.332;10.230;2022-07-23T04:51:19;27.30;85.20
45765;DHT22;31474;45.332;10.230;2022-07-23T04:53:45;27.40;85.20
45765;DHT22;31474;45.332;10.230;2022-07-23T04:56:10;27.40;85.30
45765;DHT22;31474;45.332;10.230;2022-07-23T04:58:36;27.50;85.40
45765;DHT22;31474;45.332;10.230;2022-07-23T05:01:02;27.50;85.40
45765;DHT22;31474;45.332;10.230;2022-07-23T05:03:28;27.60;85.30
45765;DHT22;31474;45.332;10.230;2022-07-23T05:05:53;27.60;85.30
45765;DHT22;31474;45.332;10.230;2022-07-23T05:08:19;27.70;85.40
45765;DHT22;31474;45.332;10.230;2022-07-23T05:10:45;27.70;84.00
45765;DHT22;31474;45.332;10.230;2022-07-23T05:13:11;27.90;84.00
45765;DHT22;31474;45.332;10.230;2022-07-23T05:15:37;28.00;84.00
45765;DHT22;31474;45.332;10.230;2022-07-23T05:18:03;28.00;83.50
45765;DHT22;31474;45.332;10.230;2022-07-23T05:20:28;28.10;83.10
45765;DHT22;31474;45.332;10.230;2022-07-23T05:22:54;28.20;82.60
45765;DHT22;31474;45.332;10.230;2022-07-23T05:25:20;28.30;82.60
45765;DHT22;31474;45.332;10.230;2022-07-23T05:27:45;28.40;82.30
45765;DHT22;31474;45.332;10.230;2022-07-23T05:30:11;28.40;82.30
45765;DHT22;31474;45.332;10.230;2022-07-23T05:32:37;28.40;82.90
45765;DHT22;31474;45.332;10.230;2022-07-23T05:35:04;28.50;82.80
45765;DHT22;31474;45.332;10.230;2022-07-23T05:37:31;28.50;83.00
45765;DHT22;31474;45.332;10.230;2022-07-23T05:40:03;28.60;82.70
45765;DHT22;31474;45.332;10.230;2022-07-23T05:42:31;28.70;82.50
45765;DHT22;31474;45.332;10.230;2022-07-23T05:44:57;28.80;82.60
45765;DHT22;31474;45.332;10.230;2022-07-23T05:47:23;28.90;82.30
45765;DHT22;31474;45.332;10.230;2022-07-23T05:49:49;29.00;82.80
45765;DHT22;31474;45.332;10.230;2022-07-23T05:52:14;29.10;82.90
45765;DHT22;31474;45.332;10.230;2022-07-23T05:54:40;29.20;83.30
45765;DHT22;31474;45.332;10.230;2022-07-23T05:57:07;29.20;82.60
45765;DHT22;31474;45.332;10.230;2022-07-23T05:59:32;29.30;82.50
45765;DHT22;31474;45.332;10.230;2022-07-23T06:01:58;29.40;83.00
45765;DHT22;31474;45.332;10.230;2022-07-23T06:04:24;29.40;82.90
45765;DHT22;31474;45.332;10.230;2022-07-23T06:06:49;29.40;82.90
45765;DHT22;31474;45.332;10.230;2022-07-23T06:09:15;29.50;82.50
45765;DHT22;31474;45.332;10.230;2022-07-23T06:11:41;29.50;82.40
45765;DHT22;31474;45.332;10.230;2022-07-23T06:14:07;29.60;82.60
45765;DHT22;31474;45.332;10.230;2022-07-23T06:16:32;29.60;82.70
45765;DHT22;31474;45.332;10.230;2022-07-23T06:18:58;29.80;82.40
45765;DHT22;31474;45.332;10.230;2022-07-23T06:21:24;30.00;81.60
45765;DHT22;31474;45.332;10.230;2022-07-23T06:23:49;30.20;81.50
45765;DHT22;31474;45.332;10.230;2022-07-23T06:26:15;30.30;81.40
45765;DHT22;31474;45.332;10.230;2022-07-23T06:28:40;30.40;80.40
45765;DHT22;31474;45.332;10.230;2022-07-23T06:31:06;30.40;80.90
45765;DHT22;31474;45.332;10.230;2022-07-23T06:33:33;30.40;80.60
45765;DHT22;31474;45.332;10.230;2022-07-23T06:35:58;30.40;80.40
45765;DHT22;31474;45.332;10.230;2022-07-23T06:38:24;30.50;80.30
45765;DHT22;31474;45.332;10.230;2022-07-23T06:40:50;30.50;81.10
45765;DHT22;31474;45.332;10.230;2022-07-23T06:43:16;30.60;80.10
45765;DHT22;31474;45.332;10.230;2022-07-23T06:45:41;30.70;80.00
45765;DHT22;31474;45.332;10.230;2022-07-23T06:48:07;30.60;80.00
45765;DHT22;31474;45.332;10.230;2022-07-23T06:50:33;30.70;80.30
45765;DHT22;31474;45.332;10.230;2022-07-23T06:52:58;30.80;80.40
45765;DHT22;31474;45.332;10.230;2022-07-23T06:55:24;30.70;80.10
45765;DHT22;31474;45.332;10.230;2022-07-23T06:57:50;30.60;80.40
45765;DHT22;31474;45.332;10.230;2022-07-23T07:00:15;30.60;80.60
45765;DHT22;31474;45.332;10.230;2022-07-23T07:02:41;30.60;80.90
45765;DHT22;31474;45.332;10.230;2022-07-23T07:05:07;30.60;81.00
45765;DHT22;31474;45.332;10.230;2022-07-23T07:07:33;30.50;81.30
45765;DHT22;31474;45.332;10.230;2022-07-23T07:09:59;30.70;81.50
45765;DHT22;31474;45.332;10.230;2022-07-23T07:12:25;30.70;81.40
45765;DHT22;31474;45.332;10.230;2022-07-23T07:14:51;30.60;81.30
45765;DHT22;31474;45.332;10.230;2022-07-23T07:17:16;30.60;81.30
45765;DHT22;31474;45.332;10.230;2022-07-23T07:19:42;30.40;81.80
45765;DHT22;31474;45.332;10.230;2022-07-23T07:22:07;30.20;82.00
45765;DHT22;31474;45.332;10.230;2022-07-23T07:24:33;30.40;82.30
45765;DHT22;31474;45.332;10.230;2022-07-23T07:26:59;30.60;82.20
45765;DHT22;31474;45.332;10.230;2022-07-23T07:29:24;31.00;81.80
45765;DHT22;31474;45.332;10.230;2022-07-23T07:31:50;31.20;81.70
45765;DHT22;31474;45.332;10.230;2022-07-23T07:34:15;31.30;81.00
45765;DHT22;31474;45.332;10.230;2022-07-23T07:36:41;31.50;80.40
45765;DHT22;31474;45.332;10.230;2022-07-23T07:39:08;31.70;80.30
45765;DHT22;31474;45.332;10.230;2022-07-23T07:41:35;31.70;80.00
45765;DHT22;31474;45.332;10.230;2022-07-23T07:44:01;31.70;80.50
45765;DHT22;31474;45.332;10.230;2022-07-23T07:46:27;31.80;79.90
45765;DHT22;31474;45.332;10.230;2022-07-23T07:48:53;31.80;79.60
45765;DHT22;31474;45.332;10.230;2022-07-23T07:51:19;31.80;80.20
45765;DHT22;31474;45.332;10.230;2022-07-23T07:53:44;31.80;79.60
45765;DHT22;31474;45.332;10.230;2022-07-23T07:56:10;32.00;79.10
45765;DHT22;31474;45.332;10.230;2022-07-23T07:58:36;32.00;79.30
45765;DHT22;31474;45.332;10.230;2022-07-23T08:01:02;32.20;79.40
45765;DHT22;31474;45.332;10.230;2022-07-23T08:03:28;32.40;79.30
45765;DHT22;31474;45.332;10.230;2022-07-23T08:05:54;32.50;79.30
45765;DHT22;31474;45.332;10.230;2022-07-23T08:08:19;32.50;79.20
45765;DHT22;31474;45.332;10.230;2022-07-23T08:10:45;32.60;78.10
45765;DHT22;31474;45.332;10.230;2022-07-23T08:13:15;32.60;78.00
45765;DHT22;31474;45.332;10.230;2022-07-23T08:15:42;32.60;77.50
45765;DHT22;31474;45.332;10.230;2022-07-23T08:18:08;32.60;78.00
45765;DHT22;31474;45.332;10.230;2022-07-23T08:20:34;32.60;78.50
45765;DHT22;31474;45.332;10.230;2022-07-23T08:23:03;32.70;78.40
45765;DHT22;31474;45.332;10.230;2022-07-23T08:25:34;32.80;77.00
45765;DHT22;31474;45.332;10.230;2022-07-23T08:28:01;32.70;77.40
45765;DHT22;31474;45.332;10.230;2022-07-23T08:30:28;32.60;78.20
45765;DHT22;31474;45.332;10.230;2022-07-23T08:33:03;32.50;77.50
45765;DHT22;31474;45.332;10.230;2022-07-23T08:35:33;32.70;78.30
45765;DHT22;31474;45.332;10.230;2022-07-23T08:38:01;32.70;78.40
45765;DHT22;31474;45.332;10.230;2022-07-23T08:40:31;32.70;78.00
45765;DHT22;31474;45.332;10.230;2022-07-23T08:42:58;32.80;77.20
45765;DHT22;31474;45.332;10.230;2022-07-23T08:45:25;32.90;77.70
45765;DHT22;31474;45.332;10.230;2022-07-23T08:47:54;33.00;78.20
45765;DHT22;31474;45.332;10.230;2022-07-23T08:50:20;33.00;77.00
45765;DHT22;31474;45.332;10.230;2022-07-23T08:52:48;33.10;77.20
45765;DHT22;31474;45.332;10.230;2022-07-23T08:55:16;33.10;75.50
45765;DHT22;31474;45.332;10.230;2022-07-23T08:57:42;33.10;74.70
45765;DHT22;31474;45.332;10.230;2022-07-23T09:00:08;33.10;75.80
45765;DHT22;31474;45.332;10.230;2022-07-23T09:02:39;33.30;74.90
45765;DHT22;31474;45.332;10.230;2022-07-23T09:05:05;33.20;72.80
45765;DHT22;31474;45.332;10.230;2022-07-23T09:07:32;33.20;75.00
45765;DHT22;31474;45.332;10.230;2022-07-23T09:10:10;33.10;74.20
45765;DHT22;31474;45.332;10.230;2022-07-23T09:12:37;33.00;74.00
45765;DHT22;31474;45.332;10.230;2022-07-23T09:15:09;32.70;74.80
45765;DHT22;31474;45.332;10.230;2022-07-23T09:17:41;32.70;75.40
45765;DHT22;31474;45.332;10.230;2022-07-23T09:20:12;32.80;75.90
45765;DHT22;31474;45.332;10.230;2022-07-23T09:22:39;32.80;73.20
45765;DHT22;31474;45.332;10.230;2022-07-23T09:25:17;32.70;74.50
45765;DHT22;31474;45.332;10.230;2022-07-23T09:30:12;33.30;73.60
45765;DHT22;31474;45.332;10.230;2022-07-23T09:32:39;33.60;73.80
45765;DHT22;31474;45.332;10.230;2022-07-23T09:35:05;33.80;73.10
45765;DHT22;31474;45.332;10.230;2022-07-23T09:37:31;34.00;72.30
45765;DHT22;31474;45.332;10.230;2022-07-23T09:40:09;34.10;72.10
45765;DHT22;31474;45.332;10.230;2022-07-23T09:42:38;34.40;72.40
45765;DHT22;31474;45.332;10.230;2022-07-23T09:45:10;34.40;71.40
45765;DHT22;31474;45.332;10.230;2022-07-23T09:47:37;34.50;69.80
45765;DHT22;31474;45.332;10.230;2022-07-23T09:50:11;34.50;71.20
45765;DHT22;31474;45.332;10.230;2022-07-23T09:52:42;34.40;71.80
45765;DHT22;31474;45.332;10.230;2022-07-23T09:55:08;34.40;71.20
45765;DHT22;31474;45.332;10.230;2022-07-23T09:57:34;34.50;72.00
45765;DHT22;31474;45.332;10.230;2022-07-23T10:00:03;34.60;71.80
45765;DHT22;31474;45.332;10.230;2022-07-23T10:02:33;34.60;71.70
45765;DHT22;31474;45.332;10.230;2022-07-23T10:05:01;34.70;71.90
45765;DHT22;31474;45.332;10.230;2022-07-23T10:07:27;34.80;70.60
45765;DHT22;31474;45.332;10.230;2022-07-23T10:09:56;34.80;72.00
45765;DHT22;31474;45.332;10.230;2022-07-23T10:12:24;35.00;72.40
45765;DHT22;31474;45.332;10.230;2022-07-23T10:15:07;34.90;71.40
45765;DHT22;31474;45.332;10.230;2022-07-23T10:17:34;35.00;72.30
45765;DHT22;31474;45.332;10.230;2022-07-23T10:20:00;35.00;71.10
45765;DHT22;31474;45.332;10.230;2022-07-23T10:22:29;34.80;71.30
45765;DHT22;31474;45.332;10.230;2022-07-23T10:25:12;34.90;71.40
45765;DHT22;31474;45.332;10.230;2022-07-23T10:40:57;35.00;73.00
45765;DHT22;31474;45.332;10.230;2022-07-23T10:43:23;35.10;69.80
45765;DHT22;31474;45.332;10.230;2022-07-23T10:45:50;34.80;70.50
45765;DHT22;31474;45.332;10.230;2022-07-23T10:48:20;34.70;71.60
45765;DHT22;31474;45.332;10.230;2022-07-23T10:51:06;34.80;71.30
45765;DHT22;31474;45.332;10.230;2022-07-23T10:56:17;34.80;69.70
45765;DHT22;31474;45.332;10.230;2022-07-23T10:58:48;34.80;70.60
45765;DHT22;31474;45.332;10.230;2022-07-23T11:01:37;34.60;70.30
45765;DHT22;31474;45.332;10.230;2022-07-23T11:04:04;34.80;70.30
45765;DHT22;31474;45.332;10.230;2022-07-23T11:09:32;35.20;74.00
45765;DHT22;31474;45.332;10.230;2022-07-23T11:15:13;35.20;68.30
45765;DHT22;31474;45.332;10.230;2022-07-23T11:17:59;35.10;69.30
45765;DHT22;31474;45.332;10.230;2022-07-23T11:20:27;35.00;69.50
45765;DHT22;31474;45.332;10.230;2022-07-23T11:22:57;35.00;69.60
45765;DHT22;31474;45.332;10.230;2022-07-23T11:28:13;35.20;73.40
45765;DHT22;31474;45.332;10.230;2022-07-23T11:30:44;35.40;70.30
45765;DHT22;31474;45.332;10.230;2022-07-23T11:35:44;35.40;69.40
45765;DHT22;31474;45.332;10.230;2022-07-23T11:38:18;35.30;68.50
45765;DHT22;31474;45.332;10.230;2022-07-23T11:40:46;35.30;67.90
45765;DHT22;31474;45.332;10.230;2022-07-23T11:43:12;35.30;69.40
45765;DHT22;31474;45.332;10.230;2022-07-23T11:45:49;35.50;69.80
45765;DHT22;31474;45.332;10.230;2022-07-23T11:48:21;35.60;69.20
45765;DHT22;31474;45.332;10.230;2022-07-23T11:50:48;35.50;68.10
45765;DHT22;31474;45.332;10.230;2022-07-23T11:55:49;35.50;67.80
45765;DHT22;31474;45.332;10.230;2022-07-23T11:58:15;35.60;68.20
45765;DHT22;31474;45.332;10.230;2022-07-23T12:00:42;35.50;67.90
45765;DHT22;31474;45.332;10.230;2022-07-23T12:03:08;35.50;68.00
45765;DHT22;31474;45.332;10.230;2022-07-23T12:05:36;35.60;69.50
45765;DHT22;31474;45.332;10.230;2022-07-23T12:08:06;35.60;68.10
45765;DHT22;31474;45.332;10.230;2022-07-23T12:10:36;35.60;67.80
45765;DHT22;31474;45.332;10.230;2022-07-23T12:13:05;35.60;67.90
45765;DHT22;31474;45.332;10.230;2022-07-23T12:18:00;35.60;68.50
45765;DHT22;31474;45.332;10.230;2022-07-23T12:20:33;35.50;67.90
45765;DHT22;31474;45.332;10.230;2022-07-23T12:23:02;35.50;67.10
45765;DHT22;31474;45.332;10.230;2022-07-23T12:25:30;35.50;68.40
45765;DHT22;31474;45.332;10.230;2022-07-23T12:28:11;35.70;68.50
45765;DHT22;31474;45.332;10.230;2022-07-23T12:30:42;35.80;66.70
45765;DHT22;31474;45.332;10.230;2022-07-23T12:33:10;35.80;67.90
45765;DHT22;31474;45.332;10.230;2022-07-23T12:35:39;35.90;67.90
45765;DHT22;31474;45.332;10.230;2022-07-23T12:38:12;35.90;67.50
45765;DHT22;31474;45.332;10.230;2022-07-23T12:40:43;35.80;66.60
45765;DHT22;31474;45.332;10.230;2022-07-23T12:43:24;35.90;67.80
45765;DHT22;31474;45.332;10.230;2022-07-23T12:48:21;35.80;68.30
45765;DHT22;31474;45.332;10.230;2022-07-23T12:50:55;35.80;68.60
45765;DHT22;31474;45.332;10.230;2022-07-23T12:53:30;35.80;69.10
45765;DHT22;31474;45.332;10.230;2022-07-23T12:56:04;35.90;69.30
45765;DHT22;31474;45.332;10.230;2022-07-23T13:01:33;35.80;68.50
45765;DHT22;31474;45.332;10.230;2022-07-23T13:04:20;35.80;68.60
45765;DHT22;31474;45.332;10.230;2022-07-23T13:06:54;35.90;68.00
45765;DHT22;31474;45.332;10.230;2022-07-23T13:09:22;35.90;67.90
45765;DHT22;31474;45.332;10.230;2022-07-23T13:11:49;35.90;67.70
45765;DHT22;31474;45.332;10.230;2022-07-23T13:14:17;36.00;68.00
45765;DHT22;31474;45.332;10.230;2022-07-23T13:16:44;35.90;69.30
45765;DHT22;31474;45.332;10.230;2022-07-23T13:19:10;36.00;68.40
45765;DHT22;31474;45.332;10.230;2022-07-23T13:21:37;36.00;67.80
45765;DHT22;31474;45.332;10.230;2022-07-23T13:24:03;35.90;68.00
45765;DHT22;31474;45.332;10.230;2022-07-23T13:26:28;36.00;68.50
45765;DHT22;31474;45.332;10.230;2022-07-23T13:28:54;36.00;68.10
45765;DHT22;31474;45.332;10.230;2022-07-23T13:31:20;36.10;67.90
45765;DHT22;31474;45.332;10.230;2022-07-23T13:33:46;36.20;67.90
45765;DHT22;31474;45.332;10.230;2022-07-23T13:36:11;36.30;68.10
45765;DHT22;31474;45.332;10.230;2022-07-23T13:38:37;36.30;68.50
45765;DHT22;31474;45.332;10.230;2022-07-23T13:41:04;36.40;67.50
45765;DHT22;31474;45.332;10.230;2022-07-23T13:43:31;36.50;69.10
45765;DHT22;31474;45.332;10.230;2022-07-23T13:45:56;36.40;67.90
45765;DHT22;31474;45.332;10.230;2022-07-23T13:48:22;36.50;69.30
45765;DHT22;31474;45.332;10.230;2022-07-23T13:50:49;36.60;67.90
45765;DHT22;31474;45.332;10.230;2022-07-23T13:53:18;36.50;68.10
45765;DHT22;31474;45.332;10.230;2022-07-23T13:55:45;36.50;67.20
45765;DHT22;31474;45.332;10.230;2022-07-23T13:58:12;36.50;67.30
45765;DHT22;31474;45.332;10.230;2022-07-23T14:00:41;36.50;67.40
45765;DHT22;31474;45.332;10.230;2022-07-23T14:03:07;36.60;68.80
45765;DHT22;31474;45.332;10.230;2022-07-23T14:05:33;36.60;68.70
45765;DHT22;31474;45.332;10.230;2022-07-23T14:07:59;36.60;67.50
45765;DHT22;31474;45.332;10.230;2022-07-23T14:10:25;36.70;67.00
45765;DHT22;31474;45.332;10.230;2022-07-23T14:12:52;36.70;67.00
45765;DHT22;31474;45.332;10.230;2022-07-23T14:15:25;36.60;67.40
45765;DHT22;31474;45.332;10.230;2022-07-23T14:17:53;36.60;67.80
45765;DHT22;31474;45.332;10.230;2022-07-23T14:20:19;36.50;67.50
45765;DHT22;31474;45.332;10.230;2022-07-23T14:22:45;36.40;67.60
45765;DHT22;31474;45.332;10.230;2022-07-23T14:25:11;36.30;67.40
45765;DHT22;31474;45.332;10.230;2022-07-23T14:27:37;36.20;67.80
45765;DHT22;31474;45.332;10.230;2022-07-23T14:30:05;36.10;68.50
45765;DHT22;31474;45.332;10.230;2022-07-23T14:32:31;36.10;68.60
45765;DHT22;31474;45.332;10.230;2022-07-23T14:34:56;36.10;68.80
45765;DHT22;31474;45.332;10.230;2022-07-23T14:37:22;35.90;68.60
45765;DHT22;31474;45.332;10.230;2022-07-23T14:39:48;36.00;69.10
45765;DHT22;31474;45.332;10.230;2022-07-23T14:42:13;36.00;69.40
45765;DHT22;31474;45.332;10.230;2022-07-23T14:44:39;36.00;69.40
45765;DHT22;31474;45.332;10.230;2022-07-23T14:47:05;36.10;68.90
45765;DHT22;31474;45.332;10.230;2022-07-23T14:49:32;36.20;69.20
45765;DHT22;31474;45.332;10.230;2022-07-23T14:51:59;36.20;68.10
45765;DHT22;31474;45.332;10.230;2022-07-23T14:54:25;36.20;68.60
45765;DHT22;31474;45.332;10.230;2022-07-23T14:56:53;36.00;68.50
45765;DHT22;31474;45.332;10.230;2022-07-23T14:59:19;35.90;69.20
45765;DHT22;31474;45.332;10.230;2022-07-23T15:01:44;35.90;69.50
45765;DHT22;31474;45.332;10.230;2022-07-23T15:04:10;35.90;69.40
45765;DHT22;31474;45.332;10.230;2022-07-23T15:06:36;35.80;68.90
45765;DHT22;31474;45.332;10.230;2022-07-23T15:09:02;35.70;69.10
45765;DHT22;31474;45.332;10.230;2022-07-23T15:11:28;35.70;69.70
45765;DHT22;31474;45.332;10.230;2022-07-23T15:13:57;35.60;70.00
45765;DHT22;31474;45.332;10.230;2022-07-23T15:16:23;35.60;69.70
45765;DHT22;31474;45.332;10.230;2022-07-23T15:18:49;35.50;69.90
45765;DHT22;31474;45.332;10.230;2022-07-23T15:21:15;35.40;70.20
45765;DHT22;31474;45.332;10.230;2022-07-23T15:23:40;35.30;70.20
45765;DHT22;31474;45.332;10.230;2022-07-23T15:26:07;35.20;70.20
45765;DHT22;31474;45.332;10.230;2022-07-23T15:28:33;35.20;70.40
45765;DHT22;31474;45.332;10.230;2022-07-23T15:30:59;35.10;70.30
45765;DHT22;31474;45.332;10.230;2022-07-23T15:33:25;35.10;70.40
45765;DHT22;31474;45.332;10.230;2022-07-23T15:35:51;35.10;70.90
45765;DHT22;31474;45.332;10.230;2022-07-23T15:38:18;35.10;70.80
45765;DHT22;31474;45.332;10.230;2022-07-23T15:40:43;35.10;71.10
45765;DHT22;31474;45.332;10.230;2022-07-23T15:43:09;35.20;71.10
45765;DHT22;31474;45.332;10.230;2022-07-23T15:45:35;35.20;71.40
45765;DHT22;31474;45.332;10.230;2022-07-23T15:48:01;35.30;72.10
45765;DHT22;31474;45.332;10.230;2022-07-23T15:50:26;35.30;72.00
45765;DHT22;31474;45.332;10.230;2022-07-23T15:52:52;35.30;71.70
45765;DHT22;31474;45.332;10.230;2022-07-23T15:55:18;35.30;71.50